sensor_id;sensor_type;location;lat;lon;timestamp;pressure;altitude;pressure_sealevel;temperature;humidity
4836;BME280;66719;51.226;6.902;2023-08-31T00:01:32;100065.25;;;12.97;100.00
4836;BME280;66719;51.226;6.902;2023-08-31T00:03:59;100071.47;;;12.94;100.00
4836;BME280;66719;51.226;6.902;2023-08-31T00:06:26;100067.94;;;12.95;100.00
4836;BME280;66719;51.226;6.902;2023-08-31T00:08:53;100070.66;;;12.92;100.00
4836;BME280;66719;51.226;6.902;2023-08-31T00:11:19;100070.00;;;12.87;100.00
4836;BME280;66719;51.226;6.902;2023-08-31T00:13:46;100073.47;;;12.88;100.00
4836;BME280;66719;51.226;6.902;2023-08-31T00:16:13;100060.34;;;12.88;100.00
4836;BME280;66719;51.226;6.902;2023-08-31T00:18:40;100066.53;;;12.87;100.00
4836;BME280;66719;51.226;6.902;2023-08-31T00:21:07;100064.81;;;12.86;100.00
4836;BME280;66719;51.226;6.902;2023-08-31T00:23:36;100057.81;;;12.85;100.00
4836;BME280;66719;51.226;6.902;2023-08-31T00:26:03;100071.06;;;12.82;100.00
4836;BME280;66719;51.226;6.902;2023-08-31T00:28:29;100066.75;;;12.81;100.00
4836;BME280;66719;51.226;6.902;2023-08-31T00:30:56;100072.06;;;12.79;100.00
4836;BME280;66719;51.226;6.902;2023-08-31T00:33:25;100066.97;;;12.74;100.00
4836;BME280;66719;51.226;6.902;2023-08-31T00:35:52;100071.38;;;12.74;100.00
4836;BME280;66719;51.226;6.902;2023-08-31T00:38:18;100063.50;;;12.74;100.00
4836;BME280;66719;51.226;6.902;2023-08-31T00:40:45;100066.06;;;12.76;100.00
4836;BME280;66719;51.226;6.902;2023-08-31T00:43:15;100062.50;;;12.77;100.00
4836;BME280;66719;51.226;6.902;2023-08-31T00:45:43;100065.13;;;12.77;100.00
4836;BME280;66719;51.226;6.902;2023-08-31T00:48:11;100073.06;;;12.75;100.00
4836;BME280;66719;51.226;6.902;2023-08-31T00:50:40;100068.81;;;12.72;100.00
4836;BME280;66719;51.226;6.902;2023-08-31T00:53:07;100078.53;;;12.70;100.00
4836;BME280;66719;51.226;6.902;2023-08-31T00:55:35;100076.06;;;12.66;100.00
4836;BME280;66719;51.226;6.902;2023-08-31T00:58:01;100072.56;;;12.65;100.00
4836;BME280;66719;51.226;6.902;2023-08-31T01:00:36;100083.09;;;12.65;100.00
4836;BME280;66719;51.226;6.902;2023-08-31T01:03:13;100079.66;;;12.63;100.00
4836;BME280;66719;51.226;6.902;2023-08-31T01:06:04;100079.72;;;12.62;100.00
4836;BME280;66719;51.226;6.902;2023-08-31T01:11:24;100072.75;;;12.61;100.00
4836;BME280;66719;51.226;6.902;2023-08-31T01:14:02;100076.34;;;12.58;100.00
4836;BME280;66719;51.226;6.902;2023-08-31T01:16:35;100084.34;;;12.55;100.00
4836;BME280;66719;51.226;6.902;2023-08-31T01:19:07;100073.97;;;12.52;100.00
4836;BME280;66719;51.226;6.902;2023-08-31T01:21:39;100074.81;;;12.53;100.00
4836;BME280;66719;51.226;6.902;2023-08-31T01:24:09;100081.78;;;12.54;100.00
4836;BME280;66719;51.226;6.902;2023-08-31T01:26:36;100077.38;;;12.54;100.00
4836;BME280;66719;51.226;6.902;2023-08-31T01:29:02;100074.88;;;12.51;100.00
4836;BME280;66719;51.226;6.902;2023-08-31T01:31:29;100065.25;;;12.50;100.00
4836;BME280;66719;51.226;6.902;2023-08-31T01:33:56;100073.97;;;12.52;100.00
4836;BME280;66719;51.226;6.902;2023-08-31T01:36:29;100066.94;;;12.53;100.00
4836;BME280;66719;51.226;6.902;2023-08-31T01:39:14;100071.38;;;12.51;100.00
4836;BME280;66719;51.226;6.902;2023-08-31T01:41:44;100070.69;;;12.45;100.00
4836;BME280;66719;51.226;6.902;2023-08-31T01:44:15;100082.13;;;12.44;100.00
4836;BME280;66719;51.226;6.902;2023-08-31T01:46:45;100077.94;;;12.39;100.00
4836;BME280;66719;51.226;6.902;2023-08-31T01:49:12;100085.16;;;12.34;100.00
4836;BME280;66719;51.226;6.902;2023-08-31T01:51:40;100080.84;;;12.31;100.00
4836;BME280;66719;51.226;6.902;2023-08-31T01:54:07;100076.63;;;12.27;100.00
4836;BME280;66719;51.226;6.902;2023-08-31T01:56:33;100089.81;;;12.26;100.00
4836;BME280;66719;51.226;6.902;2023-08-31T01:58:59;100088.06;;;12.25;100.00
4836;BME280;66719;51.226;6.902;2023-08-31T02:01:26;100091.66;;;12.22;100.00
4836;BME280;66719;51.226;6.902;2023-08-31T02:03:53;100093.44;;;12.22;100.00
4836;BME280;66719;51.226;6.902;2023-08-31T02:06:19;100090.75;;;12.23;100.00
4836;BME280;66719;51.226;6.902;2023-08-31T02:08:45;100095.16;;;12.23;100.00
4836;BME280;66719;51.226;6.902;2023-08-31T02:11:13;100096.13;;;12.20;100.00
4836;BME280;66719;51.226;6.902;2023-08-31T02:13:41;100095.41;;;12.15;100.00
4836;BME280;66719;51.226;6.902;2023-08-31T02:16:08;100101.50;;;12.17;100.00
4836;BME280;66719;51.226;6.902;2023-08-31T02:18:34;100097.19;;;12.14;100.00
4836;BME280;66719;51.226;6.902;2023-08-31T02:21:01;100100.84;;;12.10;100.00
4836;BME280;66719;51.226;6.902;2023-08-31T02:23:28;100103.56;;;12.07;100.00
4836;BME280;66719;51.226;6.902;2023-08-31T02:25:54;100102.63;;;12.10;100.00
4836;BME280;66719;51.226;6.902;2023-08-31T02:28:21;100096.66;;;12.05;100.00
4836;BME280;66719;51.226;6.902;2023-08-31T02:30:58;100110.63;;;12.05;100.00
4836;BME280;66719;51.226;6.902;2023-08-31T02:33:25;100103.66;;;12.04;100.00
4836;BME280;66719;51.226;6.902;2023-08-31T02:35:56;100098.53;;;12.01;100.00
4836;BME280;66719;51.226;6.902;2023-08-31T02:41:16;100101.38;;;11.95;100.00
4836;BME280;66719;51.226;6.902;2023-08-31T02:43:43;100095.19;;;11.96;100.00
4836;BME280;66719;51.226;6.902;2023-08-31T02:46:10;100106.63;;;11.95;100.00
4836;BME280;66719;51.226;6.902;2023-08-31T02:48:37;100101.38;;;11.95;100.00
4836;BME280;66719;51.226;6.902;2023-08-31T02:51:05;100102.16;;;11.97;100.00
4836;BME280;66719;51.226;6.902;2023-08-31T02:53:32;100098.81;;;11.94;100.00
4836;BME280;66719;51.226;6.902;2023-08-31T02:55:58;100100.50;;;11.95;100.00
4836;BME280;66719;51.226;6.902;2023-08-31T02:58:25;100101.38;;;11.95;100.00
4836;BME280;66719;51.226;6.902;2023-08-31T03:00:51;100099.78;;;11.91;100.00
4836;BME280;66719;51.226;6.902;2023-08-31T03:03:19;100095.41;;;11.90;100.00
4836;BME280;66719;51.226;6.902;2023-08-31T03:05:46;100099.91;;;11.86;100.00
4836;BME280;66719;51.226;6.902;2023-08-31T03:08:13;100099.84;;;11.88;100.00
4836;BME280;66719;51.226;6.902;2023-08-31T03:10:40;100097.34;;;11.85;100.00
4836;BME280;66719;51.226;6.902;2023-08-31T03:13:06;100100.09;;;11.82;100.00
4836;BME280;66719;51.226;6.902;2023-08-31T03:15:33;100103.59;;;11.81;100.00
4836;BME280;66719;51.226;6.902;2023-08-31T03:18:03;100107.03;;;11.83;100.00
4836;BME280;66719;51.226;6.902;2023-08-31T03:20:29;100108.75;;;11.84;100.00
4836;BME280;66719;51.226;6.902;2023-08-31T03:22:56;100108.81;;;11.82;100.00
4836;BME280;66719;51.226;6.902;2023-08-31T03:25:22;100105.34;;;11.80;100.00
4836;BME280;66719;51.226;6.902;2023-08-31T03:27:50;100108.84;;;11.81;100.00
4836;BME280;66719;51.226;6.902;2023-08-31T03:30:17;100113.25;;;11.79;100.00
4836;BME280;66719;51.226;6.902;2023-08-31T03:32:43;100116.78;;;11.78;100.00
4836;BME280;66719;51.226;6.902;2023-08-31T03:35:10;100116.91;;;11.75;100.00
4836;BME280;66719;51.226;6.902;2023-08-31T03:37:37;100120.25;;;11.78;100.00
4836;BME280;66719;51.226;6.902;2023-08-31T03:40:03;100109.75;;;11.80;100.00
4836;BME280;66719;51.226;6.902;2023-08-31T03:42:34;100121.00;;;11.83;100.00
4836;BME280;66719;51.226;6.902;2023-08-31T03:45:00;100115.78;;;11.83;100.00
4836;BME280;66719;51.226;6.902;2023-08-31T03:47:28;100119.19;;;11.85;100.00
4836;BME280;66719;51.226;6.902;2023-08-31T03:49:54;100118.13;;;11.91;100.00
4836;BME280;66719;51.226;6.902;2023-08-31T03:52:21;100121.56;;;11.93;100.00
4836;BME280;66719;51.226;6.902;2023-08-31T03:54:51;100118.03;;;11.94;100.00
4836;BME280;66719;51.226;6.902;2023-08-31T03:57:17;100110.94;;;11.96;100.00
4836;BME280;66719;51.226;6.902;2023-08-31T03:59:44;100110.09;;;11.96;100.00
4836;BME280;66719;51.226;6.902;2023-08-31T04:02:10;100109.34;;;11.92;100.00
4836;BME280;66719;51.226;6.902;2023-08-31T04:04:37;100106.66;;;11.94;100.00
4836;BME280;66719;51.226;6.902;2023-08-31T04:07:04;100117.97;;;11.96;100.00
4836;BME280;66719;51.226;6.902;2023-08-31T04:09:31;100120.66;;;11.94;100.00
4836;BME280;66719;51.226;6.902;2023-08-31T04:11:58;100128.47;;;11.96;100.00
4836;BME280;66719;51.226;6.902;2023-08-31T04:14:28;100122.28;;;11.97;100.00
4836;BME280;66719;51.226;6.902;2023-08-31T04:16:55;100130.16;;;11.97;100.00
4836;BME280;66719;51.226;6.902;2023-08-31T04:19:22;100128.34;;;11.99;100.00
4836;BME280;66719;51.226;6.902;2023-08-31T04:21:48;100131.03;;;11.97;100.00
4836;BME280;66719;51.226;6.902;2023-08-31T04:24:15;100128.34;;;11.99;100.00
4836;BME280;66719;51.226;6.902;2023-08-31T04:26:43;100123.16;;;11.97;100.00
4836;BME280;66719;51.226;6.902;2023-08-31T04:29:10;100127.59;;;11.95;100.00
4836;BME280;66719;51.226;6.902;2023-08-31T04:31:37;100123.16;;;11.97;100.00
4836;BME280;66719;51.226;6.902;2023-08-31T04:34:04;100130.09;;;11.98;100.00
4836;BME280;66719;51.226;6.902;2023-08-31T04:36:31;100129.22;;;11.99;100.00
4836;BME280;66719;51.226;6.902;2023-08-31T04:39:16;100131.94;;;11.96;100.00
4836;BME280;66719;51.226;6.902;2023-08-31T04:41:42;100142.50;;;11.95;100.00
4836;BME280;66719;51.226;6.902;2023-08-31T04:44:09;100141.69;;;11.93;100.00
4836;BME280;66719;51.226;6.902;2023-08-31T04:46:35;100149.56;;;11.93;100.00
4836;BME280;66719;51.226;6.902;2023-08-31T04:49:02;100150.50;;;11.90;100.00
4836;BME280;66719;51.226;6.902;2023-08-31T04:51:34;100147.88;;;11.90;100.00
4836;BME280;66719;51.226;6.902;2023-08-31T04:54:01;100154.03;;;11.89;100.00
4836;BME280;66719;51.226;6.902;2023-08-31T04:56:31;100154.09;;;11.87;100.00
4836;BME280;66719;51.226;6.902;2023-08-31T04:59:00;100152.31;;;11.88;100.00
4836;BME280;66719;51.226;6.902;2023-08-31T05:01:27;100148.78;;;11.89;100.00
4836;BME280;66719;51.226;6.902;2023-08-31T05:03:54;100149.63;;;11.91;100.00
4836;BME280;66719;51.226;6.902;2023-08-31T05:06:20;100158.34;;;11.92;100.00
4836;BME280;66719;51.226;6.902;2023-08-31T05:08:47;100155.66;;;11.93;100.00
4836;BME280;66719;51.226;6.902;2023-08-31T05:11:15;100164.22;;;11.98;100.00
4836;BME280;66719;51.226;6.902;2023-08-31T05:13:41;100166.84;;;11.98;100.00
4836;BME280;66719;51.226;6.902;2023-08-31T05:16:10;100167.69;;;12.00;100.00
4836;BME280;66719;51.226;6.902;2023-08-31T05:18:38;100180.81;;;11.99;100.00
4836;BME280;66719;51.226;6.902;2023-08-31T05:21:06;100170.38;;;11.97;100.00
4836;BME280;66719;51.226;6.902;2023-08-31T05:23:33;100182.69;;;11.95;100.00
4836;BME280;66719;51.226;6.902;2023-08-31T05:25:59;100189.72;;;11.95;100.00
4836;BME280;66719;51.226;6.902;2023-08-31T05:28:27;100192.34;;;11.95;100.00
4836;BME280;66719;51.226;6.902;2023-08-31T05:30:56;100195.03;;;11.93;100.00
4836;BME280;66719;51.226;6.902;2023-08-31T05:33:24;100207.34;;;11.91;100.00
4836;BME280;66719;51.226;6.902;2023-08-31T05:35:55;100197.69;;;11.92;100.00
4836;BME280;66719;51.226;6.902;2023-08-31T05:38:22;100196.72;;;11.94;100.00
4836;BME280;66719;51.226;6.902;2023-08-31T05:40:49;100207.22;;;11.94;100.00
4836;BME280;66719;51.226;6.902;2023-08-31T05:43:16;100203.56;;;11.98;100.00
4836;BME280;66719;51.226;6.902;2023-08-31T05:45:43;100204.44;;;11.99;100.00
4836;BME280;66719;51.226;6.902;2023-08-31T05:48:09;100209.66;;;12.00;100.00
4836;BME280;66719;51.226;6.902;2023-08-31T05:50:36;100210.44;;;12.02;100.00
4836;BME280;66719;51.226;6.902;2023-08-31T05:53:05;100202.59;;;12.02;100.00
4836;BME280;66719;51.226;6.902;2023-08-31T05:55:34;100204.34;;;12.02;100.00
4836;BME280;66719;51.226;6.902;2023-08-31T05:58:00;100203.50;;;12.01;100.00
4836;BME280;66719;51.226;6.902;2023-08-31T06:00:27;100217.53;;;12.00;100.00
4836;BME280;66719;51.226;6.902;2023-08-31T06:02:54;100214.06;;;11.98;100.00
4836;BME280;66719;51.226;6.902;2023-08-31T06:05:20;100209.69;;;11.99;100.00
4836;BME280;66719;51.226;6.902;2023-08-31T06:07:47;100223.63;;;12.01;100.00
4836;BME280;66719;51.226;6.902;2023-08-31T06:10:14;100214.84;;;12.02;100.00
4836;BME280;66719;51.226;6.902;2023-08-31T06:12:41;100223.56;;;12.02;100.00
4836;BME280;66719;51.226;6.902;2023-08-31T06:15:08;100221.81;;;12.03;100.00
4836;BME280;66719;51.226;6.902;2023-08-31T06:17:35;100222.66;;;12.03;100.00
4836;BME280;66719;51.226;6.902;2023-08-31T06:20:01;100230.34;;;12.09;100.00
4836;BME280;66719;51.226;6.902;2023-08-31T06:22:31;100233.81;;;12.10;100.00
4836;BME280;66719;51.226;6.902;2023-08-31T06:24:57;100239.88;;;12.12;100.00
4836;BME280;66719;51.226;6.902;2023-08-31T06:27:24;100244.22;;;12.13;100.00
4836;BME280;66719;51.226;6.902;2023-08-31T06:29:51;100247.63;;;12.15;100.00
4836;BME280;66719;51.226;6.902;2023-08-31T06:32:18;100240.59;;;12.17;100.00
4836;BME280;66719;51.226;6.902;2023-08-31T06:34:45;100239.63;;;12.20;100.00
4836;BME280;66719;51.226;6.902;2023-08-31T06:37:11;100244.81;;;12.21;100.00
4836;BME280;66719;51.226;6.902;2023-08-31T06:39:38;100236.88;;;12.23;100.00
4836;BME280;66719;51.226;6.902;2023-08-31T06:42:05;100231.56;;;12.26;100.00
4836;BME280;66719;51.226;6.902;2023-08-31T06:44:31;100243.75;;;12.27;100.00
4836;BME280;66719;51.226;6.902;2023-08-31T06:46:58;100234.00;;;12.30;100.00
4836;BME280;66719;51.226;6.902;2023-08-31T06:49:25;100240.06;;;12.32;100.00
4836;BME280;66719;51.226;6.902;2023-08-31T06:51:59;100233.88;;;12.35;100.00
4836;BME280;66719;51.226;6.902;2023-08-31T06:54:25;100240.78;;;12.37;100.00
4836;BME280;66719;51.226;6.902;2023-08-31T06:56:52;100242.44;;;12.40;100.00
4836;BME280;66719;51.226;6.902;2023-08-31T06:59:18;100240.59;;;12.42;100.00
4836;BME280;66719;51.226;6.902;2023-08-31T07:01:45;100243.22;;;12.42;100.00
4836;BME280;66719;51.226;6.902;2023-08-31T07:04:11;100244.06;;;12.44;100.00
4836;BME280;66719;51.226;6.902;2023-08-31T07:06:38;100240.53;;;12.45;100.00
4836;BME280;66719;51.226;6.902;2023-08-31T07:09:27;100250.00;;;12.49;100.00
4836;BME280;66719;51.226;6.902;2023-08-31T07:11:53;100249.91;;;12.52;100.00
4836;BME280;66719;51.226;6.902;2023-08-31T07:14:20;100258.53;;;12.56;100.00
4836;BME280;66719;51.226;6.902;2023-08-31T07:16:46;100254.00;;;12.59;100.00
4836;BME280;66719;51.226;6.902;2023-08-31T07:19:13;100251.38;;;12.61;100.00
4836;BME280;66719;51.226;6.902;2023-08-31T07:21:55;100250.31;;;12.65;100.00
4836;BME280;66719;51.226;6.902;2023-08-31T07:24:25;100256.44;;;12.65;100.00
4836;BME280;66719;51.226;6.902;2023-08-31T07:26:52;100255.47;;;12.68;100.00
4836;BME280;66719;51.226;6.902;2023-08-31T07:29:18;100271.09;;;12.72;100.00
4836;BME280;66719;51.226;6.902;2023-08-31T07:31:45;100265.81;;;12.72;100.00
4836;BME280;66719;51.226;6.902;2023-08-31T07:34:11;100265.72;;;12.76;100.00
4836;BME280;66719;51.226;6.902;2023-08-31T07:36:38;100265.69;;;12.77;100.00
4836;BME280;66719;51.226;6.902;2023-08-31T07:39:05;100269.84;;;12.83;100.00
4836;BME280;66719;51.226;6.902;2023-08-31T07:41:32;100274.09;;;12.87;100.00
4836;BME280;66719;51.226;6.902;2023-08-31T07:43:59;100273.06;;;12.91;100.00
4836;BME280;66719;51.226;6.902;2023-08-31T07:46:30;100280.81;;;12.94;100.00
4836;BME280;66719;51.226;6.902;2023-08-31T07:48:57;100275.03;;;13.09;100.00
4836;BME280;66719;51.226;6.902;2023-08-31T07:51:23;100281.13;;;13.10;100.00
4836;BME280;66719;51.226;6.902;2023-08-31T07:53:52;100287.16;;;13.13;100.00
4836;BME280;66719;51.226;6.902;2023-08-31T07:56:18;100288.81;;;13.16;100.00
4836;BME280;66719;51.226;6.902;2023-08-31T07:58:45;100285.16;;;13.21;100.00
4836;BME280;66719;51.226;6.902;2023-08-31T08:01:12;100288.66;;;13.20;100.00
4836;BME280;66719;51.226;6.902;2023-08-31T08:03:38;100295.47;;;13.26;100.00
4836;BME280;66719;51.226;6.902;2023-08-31T08:06:05;100300.59;;;13.31;100.00
4836;BME280;66719;51.226;6.902;2023-08-31T08:08:31;100295.91;;;13.39;100.00
4836;BME280;66719;51.226;6.902;2023-08-31T08:10:58;100293.78;;;13.48;100.00
4836;BME280;66719;51.226;6.902;2023-08-31T08:13:26;100304.81;;;13.58;100.00
4836;BME280;66719;51.226;6.902;2023-08-31T08:15:52;100303.16;;;13.55;100.00
4836;BME280;66719;51.226;6.902;2023-08-31T08:18:19;100308.34;;;13.57;100.00
4836;BME280;66719;51.226;6.902;2023-08-31T08:20:51;100309.28;;;13.56;100.00
4836;BME280;66719;51.226;6.902;2023-08-31T08:23:18;100305.72;;;13.57;100.00
4836;BME280;66719;51.226;6.902;2023-08-31T08:25:45;100302.28;;;13.55;100.00
4836;BME280;66719;51.226;6.902;2023-08-31T08:28:12;100311.00;;;13.57;100.00
4836;BME280;66719;51.226;6.902;2023-08-31T08:30:38;100310.06;;;13.58;100.00
4836;BME280;66719;51.226;6.902;2023-08-31T08:33:05;100311.84;;;13.57;100.00
4836;BME280;66719;51.226;6.902;2023-08-31T08:35:32;100318.41;;;13.69;100.00
4836;BME280;66719;51.226;6.902;2023-08-31T08:37:58;100319.03;;;13.76;100.00
4836;BME280;66719;51.226;6.902;2023-08-31T08:40:25;100319.66;;;13.82;100.00
4836;BME280;66719;51.226;6.902;2023-08-31T08:42:53;100316.75;;;13.90;100.00
4836;BME280;66719;51.226;6.902;2023-08-31T08:45:20;100319.06;;;13.98;100.00
4836;BME280;66719;51.226;6.902;2023-08-31T08:47:51;100319.69;;;14.04;100.00
4836;BME280;66719;51.226;6.902;2023-08-31T08:50:19;100321.28;;;14.08;100.00
4836;BME280;66719;51.226;6.902;2023-08-31T08:52:50;100326.47;;;14.10;100.00
4836;BME280;66719;51.226;6.902;2023-08-31T08:55:18;100319.44;;;14.10;100.00
4836;BME280;66719;51.226;6.902;2023-08-31T08:57:45;100324.72;;;14.10;100.00
4836;BME280;66719;51.226;6.902;2023-08-31T09:00:12;100329.75;;;14.17;100.00
4836;BME280;66719;51.226;6.902;2023-08-31T09:02:38;100329.31;;;14.27;100.00
4836;BME280;66719;51.226;6.902;2023-08-31T09:05:05;100329.59;;;14.41;100.00
4836;BME280;66719;51.226;6.902;2023-08-31T09:07:34;100326.84;;;14.45;100.00
4836;BME280;66719;51.226;6.902;2023-08-31T09:10:04;100328.53;;;14.47;100.00
4836;BME280;66719;51.226;6.902;2023-08-31T09:12:30;100334.50;;;14.51;100.00
4836;BME280;66719;51.226;6.902;2023-08-31T09:14:59;100333.78;;;14.69;100.00
4836;BME280;66719;51.226;6.902;2023-08-31T09:17:26;100326.91;;;14.65;100.00
4836;BME280;66719;51.226;6.902;2023-08-31T09:20:02;100335.00;;;14.60;100.00
4836;BME280;66719;51.226;6.902;2023-08-31T09:22:33;100339.91;;;14.69;100.00
4836;BME280;66719;51.226;6.902;2023-08-31T09:25:00;100337.06;;;14.74;100.00
4836;BME280;66719;51.226;6.902;2023-08-31T09:27:26;100336.72;;;14.82;100.00
4836;BME280;66719;51.226;6.902;2023-08-31T09:29:56;100338.25;;;14.87;100.00
4836;BME280;66719;51.226;6.902;2023-08-31T09:32:23;100337.13;;;14.93;100.00
4836;BME280;66719;51.226;6.902;2023-08-31T09:34:49;100340.22;;;15.03;100.00
4836;BME280;66719;51.226;6.902;2023-08-31T09:37:31;100349.66;;;15.08;100.00
4836;BME280;66719;51.226;6.902;2023-08-31T09:40:02;100356.56;;;15.11;100.00
4836;BME280;66719;51.226;6.902;2023-08-31T09:42:36;100346.03;;;15.11;100.00
4836;BME280;66719;51.226;6.902;2023-08-31T09:45:05;100345.63;;;14.99;100.00
4836;BME280;66719;51.226;6.902;2023-08-31T09:47:31;100336.41;;;14.89;100.00
4836;BME280;66719;51.226;6.902;2023-08-31T09:49:59;100338.13;;;14.90;100.00
4836;BME280;66719;51.226;6.902;2023-08-31T09:52:26;100336.19;;;14.94;100.00
4836;BME280;66719;51.226;6.902;2023-08-31T09:54:53;100331.66;;;14.97;100.00
4836;BME280;66719;51.226;6.902;2023-08-31T09:57:21;100339.63;;;15.16;100.00
4836;BME280;66719;51.226;6.902;2023-08-31T10:00:06;100349.72;;;15.27;100.00
4836;BME280;66719;51.226;6.902;2023-08-31T10:02:33;100344.25;;;15.32;100.00
4836;BME280;66719;51.226;6.902;2023-08-31T10:05:01;100342.25;;;15.37;100.00
4836;BME280;66719;51.226;6.902;2023-08-31T10:07:29;100352.78;;;15.37;100.00
4836;BME280;66719;51.226;6.902;2023-08-31T10:09:56;100346.53;;;15.39;100.00
4836;BME280;66719;51.226;6.902;2023-08-31T10:12:24;100345.47;;;15.43;100.00
4836;BME280;66719;51.226;6.902;2023-08-31T10:14:51;100347.84;;;15.49;100.00
4836;BME280;66719;51.226;6.902;2023-08-31T10:17:19;100350.47;;;15.49;100.00
4836;BME280;66719;51.226;6.902;2023-08-31T10:19:46;100357.81;;;15.43;100.00
4836;BME280;66719;51.226;6.902;2023-08-31T10:22:13;100368.38;;;15.43;100.00
4836;BME280;66719;51.226;6.902;2023-08-31T10:27:25;100360.94;;;15.32;100.00
4836;BME280;66719;51.226;6.902;2023-08-31T10:29:53;100363.41;;;15.35;100.00
4836;BME280;66719;51.226;6.902;2023-08-31T10:32:19;100352.69;;;15.40;100.00
4836;BME280;66719;51.226;6.902;2023-08-31T10:35:08;100362.94;;;15.46;100.00
4836;BME280;66719;51.226;6.902;2023-08-31T10:37:35;100356.34;;;15.36;100.00
4836;BME280;66719;51.226;6.902;2023-08-31T10:40:11;100352.78;;;15.37;100.00
4836;BME280;66719;51.226;6.902;2023-08-31T10:42:45;100352.09;;;15.33;100.00
4836;BME280;66719;51.226;6.902;2023-08-31T10:45:13;100350.22;;;15.35;100.00
4836;BME280;66719;51.226;6.902;2023-08-31T10:47:40;100351.94;;;15.36;100.00
4836;BME280;66719;51.226;6.902;2023-08-31T10:50:20;100355.25;;;15.41;100.00
4836;BME280;66719;51.226;6.902;2023-08-31T10:52:48;100354.47;;;15.39;100.00
4836;BME280;66719;51.226;6.902;2023-08-31T10:55:15;100354.97;;;15.47;100.00
4836;BME280;66719;51.226;6.902;2023-08-31T10:57:42;100357.47;;;15.50;100.00
4836;BME280;66719;51.226;6.902;2023-08-31T11:00:09;100349.41;;;15.53;100.00
4836;BME280;66719;51.226;6.902;2023-08-31T11:02:41;100360.31;;;15.66;100.00
4836;BME280;66719;51.226;6.902;2023-08-31T11:05:09;100348.25;;;15.79;100.00
4836;BME280;66719;51.226;6.902;2023-08-31T11:07:38;100354.25;;;16.02;100.00
4836;BME280;66719;51.226;6.902;2023-08-31T11:10:14;100346.38;;;16.19;100.00
4836;BME280;66719;51.226;6.902;2023-08-31T11:12:43;100342.69;;;16.40;100.00
4836;BME280;66719;51.226;6.902;2023-08-31T11:15:15;100348.44;;;16.31;100.00
4836;BME280;66719;51.226;6.902;2023-08-31T11:17:42;100344.59;;;16.20;100.00
4836;BME280;66719;51.226;6.902;2023-08-31T11:20:15;100344.47;;;16.04;100.00
4836;BME280;66719;51.226;6.902;2023-08-31T11:22:46;100341.81;;;16.04;100.00
4836;BME280;66719;51.226;6.902;2023-08-31T11:25:13;100338.47;;;16.00;100.00
4836;BME280;66719;51.226;6.902;2023-08-31T11:27:40;100336.31;;;15.90;100.00
4836;BME280;66719;51.226;6.902;2023-08-31T11:30:16;100338.75;;;15.94;100.00
4836;BME280;66719;51.226;6.902;2023-08-31T11:33:03;100346.41;;;16.00;100.00
4836;BME280;66719;51.226;6.902;2023-08-31T11:35:35;100341.25;;;15.97;100.00
4836;BME280;66719;51.226;6.902;2023-08-31T11:38:03;100346.25;;;16.03;100.00
4836;BME280;66719;51.226;6.902;2023-08-31T11:40:30;100338.31;;;16.03;100.00
4836;BME280;66719;51.226;6.902;2023-08-31T11:43:00;100344.75;;;15.98;100.00
4836;BME280;66719;51.226;6.902;2023-08-31T11:45:27;100339.84;;;15.90;100.00
4836;BME280;66719;51.226;6.902;2023-08-31T11:47:54;100340.72;;;15.91;100.00
4836;BME280;66719;51.226;6.902;2023-08-31T11:50:22;100348.91;;;16.03;100.00
4836;BME280;66719;51.226;6.902;2023-08-31T11:52:50;100351.19;;;16.11;100.00
4836;BME280;66719;51.226;6.902;2023-08-31T11:55:19;100341.88;;;16.21;100.00
4836;BME280;66719;51.226;6.902;2023-08-31T11:57:48;100340.75;;;16.27;100.00
4836;BME280;66719;51.226;6.902;2023-08-31T12:00:18;100338.00;;;16.28;100.00
4836;BME280;66719;51.226;6.902;2023-08-31T12:02:53;100335.44;;;16.27;100.00
4836;BME280;66719;51.226;6.902;2023-08-31T12:05:20;100321.16;;;16.31;100.00
4836;BME280;66719;51.226;6.902;2023-08-31T12:07:46;100330.16;;;16.27;100.00
4836;BME280;66719;51.226;6.902;2023-08-31T12:10:14;100342.16;;;16.15;100.00
4836;BME280;66719;51.226;6.902;2023-08-31T12:12:41;100337.03;;;16.12;100.00
4836;BME280;66719;51.226;6.902;2023-08-31T12:15:07;100357.97;;;16.17;100.00
4836;BME280;66719;51.226;6.902;2023-08-31T12:17:38;100370.31;;;15.97;100.00
4836;BME280;66719;51.226;6.902;2023-08-31T12:20:06;100346.56;;;15.58;100.00
4836;BME280;66719;51.226;6.902;2023-08-31T12:22:33;100347.50;;;15.37;100.00
4836;BME280;66719;51.226;6.902;2023-08-31T12:25:00;100342.13;;;15.40;100.00
4836;BME280;66719;51.226;6.902;2023-08-31T12:27:26;100339.06;;;15.49;100.00
4836;BME280;66719;51.226;6.902;2023-08-31T12:29:53;100337.19;;;15.71;100.00
4836;BME280;66719;51.226;6.902;2023-08-31T12:32:19;100335.59;;;16.05;100.00
4836;BME280;66719;51.226;6.902;2023-08-31T12:34:46;100327.31;;;16.49;100.00
4836;BME280;66719;51.226;6.902;2023-08-31T12:37:12;100324.81;;;16.82;100.00
4836;BME280;66719;51.226;6.902;2023-08-31T12:39:39;100326.50;;;17.00;100.00
4836;BME280;66719;51.226;6.902;2023-08-31T12:42:08;100319.84;;;17.26;100.00
4836;BME280;66719;51.226;6.902;2023-08-31T12:44:48;100313.69;;;17.59;100.00
4836;BME280;66719;51.226;6.902;2023-08-31T12:47:15;100311.28;;;18.03;100.00
4836;BME280;66719;51.226;6.902;2023-08-31T12:49:41;100311.69;;;18.43;100.00
4836;BME280;66719;51.226;6.902;2023-08-31T12:52:08;100291.47;;;18.40;100.00
4836;BME280;66719;51.226;6.902;2023-08-31T12:54:34;100314.69;;;18.05;100.00
4836;BME280;66719;51.226;6.902;2023-08-31T12:57:01;100304.28;;;17.86;100.00
4836;BME280;66719;51.226;6.902;2023-08-31T12:59:27;100300.69;;;18.03;100.00
4836;BME280;66719;51.226;6.902;2023-08-31T13:01:55;100299.31;;;18.12;100.00
4836;BME280;66719;51.226;6.902;2023-08-31T13:04:22;100314.28;;;17.81;100.00